Gedney, New York
Current Conditions -  °F | °C
As of 3:56 AM on Wednesday 22 Oct 2014 (Local Time) from KHPN Reporting Station
Light Rain Light Rain  
Wind Chill: 55°   Ceiling: 1300
Heat Index: 55°   Visibility: 6mi
Dew Point: 52°   Wind: 7mph
Humidity: 89%   Direction: 50°NE
Pressure: 29.89"   Gusts: NA
Location:  41.0104°N, 73.7454°W
Report Text: KHPN 220756Z 05006KT 6SM -RA BR BKN013 BKN018 13/11 A2989 RMK AO2 RAB17 SLP121 P0001 T01280111
Loading
Personal Weather Stations






























Interactive Weather Map New forecast layout! Learn more

10-Day Weather Forecast

Advertisements
Track Severe Weather on mobile